Time;durP1;ratioP1;P1;durP2;ratioP2;P2;SDS_P1;SDS_P2;PMS_P1;PMS_P2;Temp;Humidity;BMP_temperature;BMP_pressure;BME280_temperature;BME280_humidity;BME280_pressure;Samples;Min_cycle;Max_cycle;Signal;HPM_P1;HPM_P2
2024/01/24 00:01:50;;;;;;;;;;;;;;;26.26;37.99;95447.13;5049534;28;8786;-35
2024/01/24 00:04:22;;;;;;;;;;;;;;;26.26;37.99;95436.09;5042597;28;7194;-36
2024/01/24 00:06:52;;;;;;;;;;;;;;;26.25;37.75;95437.38;5043133;28;8934;-36
2024/01/24 00:09:18;;;;;;;;;;;;;;;26.26;38.12;95435.34;5026839;28;7205;-36
2024/01/24 00:11:48;;;;;;;;;;;;;;;26.25;38.10;95428.34;5022159;28;6991;-55
2024/01/24 00:14:15;;;;;;;;;;;;;;;26.24;37.70;95440.59;5018502;28;7149;-56
2024/01/24 00:16:42;;;;;;;;;;;;;;;26.22;37.30;95430.06;5024368;28;8684;-55
2024/01/24 00:19:19;;;;;;;;;;;;;;;26.23;37.61;95423.28;5032469;28;9150;-56
2024/01/24 00:21:46;;;;;;;;;;;;;;;26.27;37.26;95426.59;5026607;28;8993;-55
2024/01/24 00:24:14;;;;;;;;;;;;;;;26.29;37.68;95439.91;5025615;28;7224;-56
2024/01/24 00:26:50;;;;;;;;;;;;;;;26.28;37.14;95441.13;5033079;28;7230;-56
2024/01/24 00:29:16;;;;;;;;;;;;;;;26.23;37.85;95436.34;5017322;28;7347;-56
2024/01/24 00:31:46;;;;;;;;;;;;;;;26.19;37.82;95449.59;5013546;28;6913;-55
2024/01/24 00:34:20;;;;;;;;;;;;;;;26.18;38.10;95435.06;5046178;28;6970;-56
2024/01/24 00:36:50;;;;;;;;;;;;;;;26.26;37.20;95451.91;5035952;28;8781;-56
2024/01/24 00:39:17;;;;;;;;;;;;;;;26.26;37.23;95457.41;5023408;28;7364;-56
2024/01/24 00:41:43;;;;;;;;;;;;;;;26.25;37.65;95453.91;5061504;28;9055;-56
2024/01/24 00:44:15;;;;;;;;;;;;;;;26.25;37.37;95466.94;5035854;28;9032;-56
2024/01/24 00:46:41;;;;;;;;;;;;;;;26.24;37.14;95460.66;5023383;28;7054;-56
2024/01/24 00:49:12;;;;;;;;;;;;;;;26.25;37.47;95456.69;5040621;28;9008;-56
2024/01/24 00:51:52;;;;;;;;;;;;;;;26.25;37.67;95444.88;5018624;28;8845;-56
2024/01/24 00:54:24;;;;;;;;;;;;;;;26.22;37.32;95429.31;5027585;28;7252;-56
2024/01/24 00:56:50;;;;;;;;;;;;;;;26.24;37.39;95424.06;5018654;28;6988;-55
2024/01/24 00:59:20;;;;;;;;;;;;;;;26.24;37.47;95418.53;5051064;28;7310;-56
2024/01/24 01:02:23;;;;;;;;;;;;;;;26.27;37.53;95417.56;5018004;28;7230;-55
2024/01/24 01:04:52;;;;;;;;;;;;;;;26.20;37.22;95413.25;5052110;28;9099;-55
2024/01/24 01:07:32;;;;;;;;;;;;;;;26.21;37.66;95400.22;5026495;28;7267;-56
2024/01/24 01:09:59;;;;;;;;;;;;;;;26.21;37.34;95400.97;5034566;28;8793;-55
2024/01/24 01:12:29;;;;;;;;;;;;;;;26.24;37.62;95388.97;5033263;28;7360;-54
2024/01/24 01:15:24;;;;;;;;;;;;;;;26.26;36.99;95391.97;5036921;28;7322;-55
2024/01/24 01:18:18;;;;;;;;;;;;;;;26.26;36.99;95391.22;4987627;28;8811;-56
2024/01/24 01:20:59;;;;;;;;;;;;;;;26.24;37.42;95388.19;4966975;28;9035;-56
2024/01/24 01:23:25;;;;;;;;;;;;;;;26.22;37.17;95385.94;4968847;28;8719;-56
2024/01/24 01:25:52;;;;;;;;;;;;;;;26.24;37.16;95366.13;4968033;28;7003;-56
2024/01/24 01:28:22;;;;;;;;;;;;;;;26.22;37.26;95368.63;4977892;28;7263;-56
2024/01/24 01:30:48;;;;;;;;;;;;;;;26.21;36.70;95380.94;4982746;28;6972;-56
2024/01/24 01:33:16;;;;;;;;;;;;;;;26.25;37.07;95367.66;4974351;28;8781;-56
2024/01/24 01:35:45;;;;;;;;;;;;;;;26.26;37.33;95371.91;4983504;28;7870;-56
2024/01/24 01:38:27;;;;;;;;;;;;;;;26.25;37.71;95375.94;4972598;28;9038;-56
2024/01/24 01:40:55;;;;;;;;;;;;;;;26.23;37.56;95386.72;4978054;28;9127;-55
2024/01/24 01:43:24;;;;;;;;;;;;;;;26.23;37.01;95379.16;4969823;28;7454;-56
2024/01/24 01:46:01;;;;;;;;;;;;;;;26.23;37.29;95373.66;4964025;28;7104;-56
2024/01/24 01:48:28;;;;;;;;;;;;;;;26.24;37.24;95377.94;4964510;28;6981;-56
2024/01/24 01:51:26;;;;;;;;;;;;;;;26.24;37.61;95350.34;4966025;28;7016;-56
2024/01/24 01:54:13;;;;;;;;;;;;;;;26.25;37.54;95351.88;4914173;29;6977;-56
2024/01/24 01:56:50;;;;;;;;;;;;;;;26.26;36.95;95358.13;4959481;28;8750;-55
2024/01/24 01:59:28;;;;;;;;;;;;;;;26.23;37.62;95357.09;4944673;28;8811;-56
2024/01/24 02:02:00;;;;;;;;;;;;;;;26.22;37.12;95344.56;4940305;28;7260;-56
2024/01/24 02:04:38;;;;;;;;;;;;;;;26.24;37.30;95349.59;4938389;28;7331;-56
2024/01/24 02:07:05;;;;;;;;;;;;;;;26.21;37.53;95365.13;4960605;28;9109;-56
2024/01/24 02:09:41;;;;;;;;;;;;;;;26.25;36.74;95373.19;4963933;28;9028;-56
2024/01/24 02:12:32;;;;;;;;;;;;;;;26.23;36.99;95365.38;4954072;28;7010;-56
2024/01/24 02:15:46;;;;;;;;;;;;;;;26.23;37.05;95354.34;4955867;28;7396;-56
2024/01/24 02:18:28;;;;;;;;;;;;;;;26.24;36.61;95346.84;4939594;28;7403;-56
2024/01/24 02:21:08;;;;;;;;;;;;;;;26.24;37.21;95349.59;4934341;28;7429;-56
2024/01/24 02:24:09;;;;;;;;;;;;;;;26.23;36.90;95340.56;4938410;28;8955;-56
2024/01/24 02:26:53;;;;;;;;;;;;;;;26.23;36.98;95339.81;4924056;28;9071;-56
2024/01/24 02:29:30;;;;;;;;;;;;;;;26.17;37.38;95335.03;4923209;29;9472;-56
2024/01/24 02:31:57;;;;;;;;;;;;;;;26.17;37.46;95337.78;4916945;29;7867;-39
2024/01/24 02:34:37;;;;;;;;;;;;;;;26.16;37.01;95343.78;4929820;29;7257;-40
2024/01/24 02:37:14;;;;;;;;;;;;;;;26.19;37.17;95353.09;4934922;28;7137;-38
2024/01/24 02:39:54;;;;;;;;;;;;;;;26.20;37.15;95355.34;4915512;29;7152;-38
2024/01/24 02:42:22;;;;;;;;;;;;;;;26.22;37.62;95347.34;4918586;29;7914;-38
2024/01/24 02:44:50;;;;;;;;;;;;;;;26.24;36.84;95346.84;4942941;28;7533;-38
2024/01/24 02:47:19;;;;;;;;;;;;;;;26.18;37.09;95324.75;4926259;29;7248;-39
2024/01/24 02:49:45;;;;;;;;;;;;;;;26.16;36.54;95322.47;4919470;29;9070;-38
2024/01/24 02:52:14;;;;;;;;;;;;;;;26.20;37.32;95321.50;4914081;29;9416;-38
2024/01/24 02:54:42;;;;;;;;;;;;;;;26.17;36.99;95307.44;4937861;28;7128;-38
2024/01/24 02:57:10;;;;;;;;;;;;;;;26.21;36.68;95306.47;4956160;28;9132;-38
2024/01/24 02:59:36;;;;;;;;;;;;;;;26.20;36.56;95308.47;4968933;28;7068;-38
2024/01/24 03:02:02;;;;;;;;;;;;;;;26.21;36.58;95318.22;4970865;28;8763;-38
2024/01/24 03:04:28;;;;;;;;;;;;;;;26.19;36.65;95306.22;5047369;28;8757;-38
2024/01/24 03:07:11;;;;;;;;;;;;;;;26.23;37.33;95292.94;5027962;28;7221;-38
2024/01/24 03:09:51;;;;;;;;;;;;;;;26.23;36.43;95299.19;5038518;28;7315;-38
2024/01/24 03:12:27;;;;;;;;;;;;;;;26.23;36.97;95310.22;5033913;28;9092;-39
2024/01/24 03:15:27;;;;;;;;;;;;;;;26.23;36.65;95299.19;5031650;28;8413;-38
2024/01/24 03:17:54;;;;;;;;;;;;;;;26.21;36.47;95296.19;5037139;28;7256;-38
2024/01/24 03:20:26;;;;;;;;;;;;;;;26.25;36.83;95309.75;5041693;28;7019;-38
2024/01/24 03:22:57;;;;;;;;;;;;;;;26.25;36.50;95301.47;5056200;28;7018;-39
2024/01/24 03:25:27;;;;;;;;;;;;;;;26.23;36.49;95301.94;5043389;28;7150;-39
2024/01/24 03:27:53;;;;;;;;;;;;;;;26.20;36.27;95300.19;5036160;28;7602;-38
2024/01/24 03:30:29;;;;;;;;;;;;;;;26.22;36.91;95292.19;5042321;28;9540;-39
2024/01/24 03:32:55;;;;;;;;;;;;;;;26.21;36.84;95298.19;5020722;28;7467;-38
2024/01/24 03:35:21;;;;;;;;;;;;;;;26.22;37.05;95308.72;5028573;28;9450;-38
2024/01/24 03:38:22;;;;;;;;;;;;;;;26.20;36.94;95310.47;5049511;28;8308;-38
2024/01/24 03:40:59;;;;;;;;;;;;;;;26.20;36.67;95305.72;5018462;28;7323;-38
2024/01/24 03:44:19;;;;;;;;;;;;;;;26.21;37.15;95323.03;5015932;28;6972;-38
2024/01/24 03:46:45;;;;;;;;;;;;;;;26.22;36.38;95319.00;4940819;28;9167;-38
2024/01/24 03:49:20;;;;;;;;;;;;;;;26.19;36.63;95306.22;4930416;28;7025;-38
2024/01/24 03:51:46;;;;;;;;;;;;;;;26.18;36.68;95316.47;4925280;29;7518;-38
2024/01/24 03:54:16;;;;;;;;;;;;;;;26.18;36.88;95302.69;4926867;28;7313;-38
2024/01/24 03:56:52;;;;;;;;;;;;;;;26.19;36.98;95314.47;4925716;28;7506;-39
2024/01/24 03:59:18;;;;;;;;;;;;;;;26.15;36.66;95312.69;4944222;28;8506;-38
2024/01/24 04:01:46;;;;;;;;;;;;;;;26.14;37.03;95297.38;4905777;29;7374;-38
2024/01/24 04:04:42;;;;;;;;;;;;;;;26.20;36.47;95310.47;4943621;28;9070;-38
2024/01/24 04:07:20;;;;;;;;;;;;;;;26.19;36.57;95322.75;4870350;29;6980;-38
2024/01/24 04:09:58;;;;;;;;;;;;;;;26.12;37.08;95302.66;4857005;29;7408;-39
2024/01/24 04:12:25;;;;;;;;;;;;;;;26.15;36.95;95314.69;4862098;29;8812;-39
2024/01/24 04:14:52;;;;;;;;;;;;;;;26.14;36.30;95319.44;4866958;29;8847;-38
2024/01/24 04:17:34;;;;;;;;;;;;;;;26.16;36.53;95327.25;4887929;29;9105;-38
2024/01/24 04:20:03;;;;;;;;;;;;;;;26.18;37.10;95341.31;4899950;28;8764;-38
2024/01/24 04:22:46;;;;;;;;;;;;;;;26.15;36.54;95332.00;4975013;28;7239;-38
2024/01/24 04:25:12;;;;;;;;;;;;;;;26.19;36.45;95337.28;4985937;28;8772;-38
2024/01/24 04:27:50;;;;;;;;;;;;;;;26.18;36.38;95344.06;4955602;28;9704;-38
2024/01/24 04:30:17;;;;;;;;;;;;;;;26.19;36.99;95342.06;4965215;28;9112;-38
2024/01/24 04:33:07;;;;;;;;;;;;;;;26.19;36.86;95369.63;4965259;28;8736;-38
2024/01/24 04:35:33;;;;;;;;;;;;;;;26.17;36.33;95368.13;4983206;28;7180;-38
2024/01/24 04:38:11;;;;;;;;;;;;;;;26.16;37.02;95376.88;4967538;28;9282;-38
2024/01/24 04:40:40;;;;;;;;;;;;;;;26.21;36.71;95378.91;4966044;28;9076;-38
2024/01/24 04:43:22;;;;;;;;;;;;;;;26.19;36.78;95383.44;4996883;28;7896;-39
2024/01/24 04:45:48;;;;;;;;;;;;;;;26.18;36.15;95396.44;5048120;28;6986;-38
2024/01/24 04:48:14;;;;;;;;;;;;;;;26.16;36.27;95394.16;5050155;28;9189;-38
2024/01/24 04:50:40;;;;;;;;;;;;;;;26.16;37.02;95418.97;5033788;28;7243;-40
2024/01/24 04:53:08;;;;;;;;;;;;;;;26.18;37.00;95418.50;5055377;28;7097;-40
2024/01/24 04:55:43;;;;;;;;;;;;;;;26.16;36.91;95416.22;5047885;28;7245;-39
2024/01/24 04:58:14;;;;;;;;;;;;;;;26.17;36.77;95420.50;5060592;28;7228;-39
2024/01/24 05:00:55;;;;;;;;;;;;;;;26.13;36.98;95417.22;5038712;28;7373;-40
2024/01/24 05:03:30;;;;;;;;;;;;;;;26.15;36.86;95408.44;5035716;28;7227;-39
2024/01/24 05:06:07;;;;;;;;;;;;;;;26.16;36.58;95426.53;5018021;28;7503;-39
2024/01/24 05:08:34;;;;;;;;;;;;;;;26.14;36.83;95424.22;5040911;28;7008;-39
2024/01/24 05:11:05;;;;;;;;;;;;;;;26.12;37.05;95426.00;5020494;28;6983;-39
2024/01/24 05:13:55;;;;;;;;;;;;;;;26.12;36.79;95421.22;5033572;28;9111;-38
2024/01/24 05:16:25;;;;;;;;;;;;;;;26.16;36.56;95416.22;5049006;28;7322;-39
2024/01/24 05:19:01;;;;;;;;;;;;;;;26.19;36.31;95419.28;5044487;28;7321;-39
2024/01/24 05:21:43;;;;;;;;;;;;;;;26.19;36.28;95414.50;5035932;28;7266;-39
2024/01/24 05:24:10;;;;;;;;;;;;;;;26.15;36.90;95425.75;5017288;28;7589;-38
2024/01/24 05:26:38;;;;;;;;;;;;;;;26.15;36.97;95414.72;5033283;28;7267;-38
2024/01/24 05:29:08;;;;;;;;;;;;;;;26.13;36.97;95400.69;5034559;28;9139;-40
2024/01/24 05:31:38;;;;;;;;;;;;;;;26.12;37.53;95404.66;5029145;28;7058;-38
2024/01/24 05:34:08;;;;;;;;;;;;;;;26.14;37.50;95407.69;5042526;28;6989;-38
2024/01/24 05:36:34;;;;;;;;;;;;;;;26.19;37.32;95406.22;5025763;28;7002;-38
2024/01/24 05:39:03;;;;;;;;;;;;;;;26.16;37.29;95399.69;5016368;28;7668;-38
2024/01/24 05:41:58;;;;;;;;;;;;;;;26.23;37.22;95411.53;5022393;28;9183;-39
2024/01/24 05:44:32;;;;;;;;;;;;;;;26.19;36.77;95397.22;5057940;28;7261;-40
2024/01/24 05:46:58;;;;;;;;;;;;;;;26.16;37.19;95401.69;5049425;28;7294;-39
2024/01/24 05:49:24;;;;;;;;;;;;;;;26.15;37.26;95406.44;5027761;28;7178;-38
2024/01/24 05:51:50;;;;;;;;;;;;;;;26.14;37.11;95401.44;5025225;28;7587;-38
2024/01/24 05:54:18;;;;;;;;;;;;;;;26.15;37.20;95414.72;5037794;28;8916;-39
2024/01/24 05:56:46;;;;;;;;;;;;;;;26.16;36.98;95415.50;5020730;28;9063;-40
2024/01/24 05:59:19;;;;;;;;;;;;;;;26.16;37.30;95404.47;5031018;28;6961;-39
2024/01/24 06:01:59;;;;;;;;;;;;;;;26.16;37.25;95421.00;5024681;28;6964;-38
2024/01/24 06:04:25;;;;;;;;;;;;;;;26.13;36.62;95414.47;5034284;28;7236;-37
2024/01/24 06:07:03;;;;;;;;;;;;;;;26.14;36.98;95423.50;5034629;28;9168;-38
2024/01/24 06:09:46;;;;;;;;;;;;;;;26.10;36.63;95434.72;5049988;28;7273;-56
2024/01/24 06:12:18;;;;;;;;;;;;;;;26.18;36.60;95437.81;5049130;28;7357;-56
2024/01/24 06:14:46;;;;;;;;;;;;;;;26.18;36.76;95437.81;5028657;28;6979;-56
2024/01/24 06:17:13;;;;;;;;;;;;;;;26.17;37.10;95428.78;5021230;28;9090;-56
2024/01/24 06:19:45;;;;;;;;;;;;;;;26.19;36.81;95424.78;5026232;28;7209;-56
2024/01/24 06:22:12;;;;;;;;;;;;;;;26.17;36.29;95423.25;5027788;28;7052;-56
2024/01/24 06:24:40;;;;;;;;;;;;;;;26.20;36.50;95424.28;5039823;28;8046;-56
2024/01/24 06:27:18;;;;;;;;;;;;;;;26.20;36.40;95416.00;5025636;28;7436;-56
2024/01/24 06:29:51;;;;;;;;;;;;;;;26.20;36.58;95418.78;5035978;28;6978;-56
2024/01/24 06:32:18;;;;;;;;;;;;;;;26.16;36.42;95416.22;5042761;28;9709;-56
2024/01/24 06:34:44;;;;;;;;;;;;;;;26.15;36.58;95408.44;5022020;28;7266;-56
2024/01/24 06:37:10;;;;;;;;;;;;;;;26.20;36.72;95410.50;5022308;28;9144;-56
2024/01/24 06:39:36;;;;;;;;;;;;;;;26.17;36.88;95412.22;5038565;28;7192;-56
2024/01/24 06:42:20;;;;;;;;;;;;;;;26.19;36.63;95411.00;5020401;28;7086;-56
2024/01/24 06:44:46;;;;;;;;;;;;;;;26.15;36.32;95392.66;5016518;28;7257;-57
2024/01/24 06:47:12;;;;;;;;;;;;;;;26.13;37.06;95395.16;5042075;28;9058;-56
2024/01/24 06:49:37;;;;;;;;;;;;;;;26.13;36.62;95392.41;5045716;28;8751;-56
2024/01/24 06:52:03;;;;;;;;;;;;;;;26.11;37.05;95391.38;5049181;28;6965;-56
2024/01/24 06:54:30;;;;;;;;;;;;;;;26.13;36.72;95381.38;5007720;28;7622;-56
2024/01/24 06:57:23;;;;;;;;;;;;;;;26.12;36.95;95393.63;5046193;28;8989;-56
2024/01/24 06:59:49;;;;;;;;;;;;;;;26.10;37.00;95409.91;5028567;28;7175;-56
2024/01/24 07:02:34;;;;;;;;;;;;;;;26.12;37.02;95399.16;5040869;28;7228;-56
2024/01/24 07:05:10;;;;;;;;;;;;;;;26.12;36.87;95396.41;5043449;28;7278;-56
2024/01/24 07:07:50;;;;;;;;;;;;;;;26.13;36.74;95394.41;5057924;28;9586;-56
2024/01/24 07:10:16;;;;;;;;;;;;;;;26.11;37.22;95408.69;5054141;28;7039;-56
2024/01/24 07:12:45;;;;;;;;;;;;;;;26.12;37.03;95401.19;5049030;28;7260;-56
2024/01/24 07:15:12;;;;;;;;;;;;;;;26.13;37.33;95397.16;5034229;28;7005;-56
2024/01/24 07:17:38;;;;;;;;;;;;;;;26.12;37.05;95376.34;5037226;28;8955;-56
2024/01/24 07:20:20;;;;;;;;;;;;;;;26.11;36.83;95383.88;5028983;28;6999;-56
2024/01/24 07:22:48;;;;;;;;;;;;;;;26.09;37.17;95372.56;5041162;28;6861;-56
2024/01/24 07:25:22;;;;;;;;;;;;;;;26.12;37.71;95355.03;5024249;28;9277;-56
2024/01/24 07:27:48;;;;;;;;;;;;;;;26.12;37.36;95352.28;5036630;28;9059;-56
2024/01/24 07:30:24;;;;;;;;;;;;;;;26.12;36.89;95354.31;5023186;28;9298;-56
2024/01/24 07:33:42;;;;;;;;;;;;;;;26.10;37.69;95367.78;5033124;28;7666;-56
2024/01/24 07:36:08;;;;;;;;;;;;;;;26.10;37.07;95370.56;5015077;28;8775;-56
2024/01/24 07:38:46;;;;;;;;;;;;;;;26.10;37.09;95368.56;5006560;28;9266;-56
2024/01/24 07:41:29;;;;;;;;;;;;;;;26.11;37.45;95364.56;5011745;28;7010;-56
2024/01/24 07:44:13;;;;;;;;;;;;;;;26.11;37.58;95370.09;4992293;28;7204;-56
2024/01/24 07:46:43;;;;;;;;;;;;;;;26.10;37.23;95376.81;4995393;28;9133;-56
2024/01/24 07:49:09;;;;;;;;;;;;;;;26.09;37.49;95377.31;4995235;28;8621;-56
2024/01/24 07:51:35;;;;;;;;;;;;;;;26.07;37.52;95385.31;5011541;28;7018;-56
2024/01/24 07:54:04;;;;;;;;;;;;;;;26.05;36.85;95396.84;5011653;28;7326;-56
2024/01/24 07:56:30;;;;;;;;;;;;;;;26.09;37.64;95394.63;5007294;28;7627;-56
2024/01/24 07:59:08;;;;;;;;;;;;;;;26.09;37.44;95399.38;5011680;28;7236;-56
2024/01/24 08:01:34;;;;;;;;;;;;;;;26.10;36.95;95403.63;5012118;28;8962;-56
2024/01/24 08:04:32;;;;;;;;;;;;;;;26.10;37.09;95403.63;5014963;28;7250;-56
2024/01/24 08:07:22;;;;;;;;;;;;;;;26.10;37.85;95409.91;4998785;28;9001;-56
2024/01/24 08:09:50;;;;;;;;;;;;;;;26.07;37.72;95407.38;5015299;28;7252;-56
2024/01/24 08:12:27;;;;;;;;;;;;;;;26.09;37.84;95424.19;5046501;28;7047;-56
2024/01/24 08:14:53;;;;;;;;;;;;;;;26.08;37.15;95420.69;5038166;28;7069;-56
2024/01/24 08:17:20;;;;;;;;;;;;;;;26.08;37.01;95439.97;5035563;28;7238;-56
2024/01/24 08:19:49;;;;;;;;;;;;;;;26.09;37.93;95433.22;5033711;28;7086;-56
2024/01/24 08:22:15;;;;;;;;;;;;;;;26.08;37.48;95426.19;5035515;28;7924;-56
2024/01/24 08:24:53;;;;;;;;;;;;;;;26.05;37.02;95424.41;5023567;28;7215;-56
2024/01/24 08:27:36;;;;;;;;;;;;;;;26.10;36.97;95439.47;5046990;28;9418;-56
2024/01/24 08:30:15;;;;;;;;;;;;;;;26.09;37.74;95433.22;5025198;28;6982;-39
2024/01/24 08:32:55;;;;;;;;;;;;;;;26.08;37.88;95428.94;5029028;28;7158;-38
2024/01/24 08:35:33;;;;;;;;;;;;;;;26.10;37.09;95433.97;5024596;28;7736;-38
2024/01/24 08:38:00;;;;;;;;;;;;;;;26.11;37.48;95441.00;5034113;28;7245;-38
2024/01/24 08:40:28;;;;;;;;;;;;;;;26.11;37.32;95438.25;5027664;28;9662;-38
2024/01/24 08:42:54;;;;;;;;;;;;;;;26.11;37.00;95429.97;5031593;28;8843;-38
2024/01/24 08:45:21;;;;;;;;;;;;;;;26.07;37.39;95435.69;5034025;28;8878;-38
2024/01/24 08:47:47;;;;;;;;;;;;;;;26.11;37.43;95450.03;5049965;28;7126;-38
2024/01/24 08:50:13;;;;;;;;;;;;;;;26.10;37.35;95445.00;5016686;28;9620;-38
2024/01/24 08:52:39;;;;;;;;;;;;;;;26.09;37.75;95444.25;5017923;28;7429;-38
2024/01/24 08:55:07;;;;;;;;;;;;;;;26.10;37.46;95445.00;5033480;28;7154;-38
2024/01/24 08:57:34;;;;;;;;;;;;;;;26.10;37.11;95450.50;5018550;28;7254;-38
2024/01/24 09:00:07;;;;;;;;;;;;;;;26.07;37.45;95451.47;5033463;28;8877;-39
2024/01/24 09:02:39;;;;;;;;;;;;;;;26.10;37.45;95461.53;5031768;28;9304;-38
2024/01/24 09:05:05;;;;;;;;;;;;;;;26.11;37.68;95479.59;5033468;28;7272;-40
2024/01/24 09:07:34;;;;;;;;;;;;;;;26.11;37.10;95477.63;5048643;28;6981;-39
2024/01/24 09:10:06;;;;;;;;;;;;;;;26.11;37.71;95468.59;5033592;28;7237;-39
2024/01/24 09:12:37;;;;;;;;;;;;;;;26.12;37.30;95473.59;5017569;28;7239;-38
2024/01/24 09:15:12;;;;;;;;;;;;;;;26.13;37.40;95483.41;5050892;28;7244;-38
2024/01/24 09:17:48;;;;;;;;;;;;;;;26.15;37.26;95475.38;5035180;28;9192;-38
2024/01/24 09:20:15;;;;;;;;;;;;;;;26.17;37.55;95492.19;5030913;28;7379;-38
2024/01/24 09:23:14;;;;;;;;;;;;;;;26.19;37.82;95490.97;5018173;28;7221;-38
2024/01/24 09:25:41;;;;;;;;;;;;;;;26.20;37.46;95489.72;5020161;28;9854;-39
2024/01/24 09:28:10;;;;;;;;;;;;;;;26.14;37.61;95481.41;5040456;28;9044;-38
2024/01/24 09:30:48;;;;;;;;;;;;;;;26.19;37.02;95490.97;5034040;28;6952;-38
2024/01/24 09:33:16;;;;;;;;;;;;;;;26.20;37.22;95495.22;5024465;28;9108;-38
2024/01/24 09:35:54;;;;;;;;;;;;;;;26.20;37.63;95484.19;5040220;28;8959;-38
2024/01/24 09:38:24;;;;;;;;;;;;;;;26.19;37.71;95486.19;5034067;28;6999;-38
2024/01/24 09:40:59;;;;;;;;;;;;;;;26.19;37.93;95479.94;5033790;28;8903;-56
2024/01/24 09:43:31;;;;;;;;;;;;;;;26.16;37.20;95470.63;5016905;28;7005;-56
2024/01/24 09:46:03;;;;;;;;;;;;;;;26.16;37.29;95448.56;5040951;28;8929;-56
2024/01/24 09:48:29;;;;;;;;;;;;;;;26.14;37.67;95451.81;5046670;28;7004;-56
2024/01/24 09:50:55;;;;;;;;;;;;;;;26.12;37.29;95443.25;5031057;28;7508;-55
2024/01/24 09:53:24;;;;;;;;;;;;;;;26.12;37.14;95439.78;5025777;28;7132;-56
2024/01/24 09:55:53;;;;;;;;;;;;;;;26.13;37.98;95442.03;5020724;28;9133;-57
2024/01/24 09:58:20;;;;;;;;;;;;;;;26.15;38.23;95431.28;5031085;28;7275;-56
2024/01/24 10:00:47;;;;;;;;;;;;;;;26.19;37.71;95446.84;5016283;28;7050;-56
2024/01/24 10:03:15;;;;;;;;;;;;;;;26.23;38.55;95450.88;5033552;28;7056;-57
2024/01/24 10:05:44;;;;;;;;;;;;;;;26.19;38.33;95447.59;5014573;28;7642;-56
2024/01/24 10:08:11;;;;;;;;;;;;;;;26.22;38.31;95451.38;5030398;28;9254;-56
2024/01/24 10:10:38;;;;;;;;;;;;;;;26.19;38.09;95449.59;5020570;28;9168;-57
2024/01/24 10:13:38;;;;;;;;;;;;;;;26.17;38.11;95450.84;5033374;28;7189;-56
2024/01/24 10:16:29;;;;;;;;;;;;;;;26.20;37.89;95451.88;5030487;28;9841;-56
2024/01/24 10:18:56;;;;;;;;;;;;;;;26.21;37.50;95449.88;5029270;28;7453;-56
2024/01/24 10:21:40;;;;;;;;;;;;;;;26.24;37.60;95457.91;5020498;28;7398;-56
2024/01/24 10:24:09;;;;;;;;;;;;;;;26.23;37.77;95459.13;5040294;28;7353;-56
2024/01/24 10:27:08;;;;;;;;;;;;;;;26.22;37.13;95449.38;5042776;28;7258;-56
2024/01/24 10:30:08;;;;;;;;;;;;;;;26.20;37.89;95453.84;4957419;28;9107;-56
2024/01/24 10:32:38;;;;;;;;;;;;;;;26.21;36.93;95455.38;4933963;29;7240;-56
2024/01/24 10:35:05;;;;;;;;;;;;;;;26.17;37.48;95472.91;4926751;29;7487;-56
2024/01/24 10:37:32;;;;;;;;;;;;;;;26.16;37.36;95470.63;4920916;29;8231;-56
2024/01/24 10:40:06;;;;;;;;;;;;;;;26.11;37.70;95463.06;4921746;29;8732;-56
2024/01/24 10:42:39;;;;;;;;;;;;;;;26.14;37.37;95457.31;4927536;29;9134;-56
2024/01/24 10:45:33;;;;;;;;;;;;;;;26.09;37.68;95452.53;5068814;28;6755;-55
2024/01/24 10:48:00;;;;;;;;;;;;;;;26.10;37.90;95440.25;5063650;28;9396;-55
2024/01/24 10:50:27;;;;;;;;;;;;;;;26.07;37.88;95427.44;5044240;28;6995;-37
2024/01/24 10:52:55;;;;;;;;;;;;;;;26.11;38.09;95424.47;5049052;28;6979;-39
2024/01/24 10:55:21;;;;;;;;;;;;;;;26.11;37.48;95416.19;5071866;28;6998;-37
2024/01/24 10:57:49;;;;;;;;;;;;;;;26.12;37.85;95426.00;5047418;28;7207;-38
2024/01/24 11:00:19;;;;;;;;;;;;;;;26.11;38.53;95430.75;5047442;28;7140;-37
2024/01/24 11:02:45;;;;;;;;;;;;;;;26.12;37.60;95437.75;5054277;28;7101;-37
2024/01/24 11:05:29;;;;;;;;;;;;;;;26.13;37.71;95446.78;5048571;28;6983;-38
2024/01/24 11:08:28;;;;;;;;;;;;;;;26.12;37.84;95443.25;5048370;28;7579;-37
2024/01/24 11:11:01;;;;;;;;;;;;;;;26.11;38.48;95433.50;4979774;28;7367;-37
2024/01/24 11:13:27;;;;;;;;;;;;;;;26.11;38.26;95425.22;4980949;28;7874;-38
2024/01/24 11:15:54;;;;;;;;;;;;;;;26.11;38.09;95414.19;4962487;28;8784;-38
2024/01/24 11:18:22;;;;;;;;;;;;;;;26.09;38.40;95410.41;4981956;28;8776;-37
2024/01/24 11:20:56;;;;;;;;;;;;;;;26.12;38.26;95401.91;4961059;28;8412;-38
2024/01/24 11:23:40;;;;;;;;;;;;;;;26.13;38.66;95408.94;4966345;28;7002;-39
2024/01/24 11:26:31;;;;;;;;;;;;;;;26.12;38.23;95404.66;4960159;28;7007;-37
2024/01/24 11:29:05;;;;;;;;;;;;;;;26.10;38.66;95407.16;4975521;28;7217;-37
2024/01/24 11:31:39;;;;;;;;;;;;;;;26.09;38.66;95408.41;4974512;28;7237;-38
2024/01/24 11:34:13;;;;;;;;;;;;;;;26.09;38.97;95413.16;4976193;28;7316;-37
2024/01/24 11:36:53;;;;;;;;;;;;;;;26.09;39.24;95408.41;4979839;28;8205;-37
2024/01/24 11:39:38;;;;;;;;;;;;;;;26.08;38.76;95415.16;4982796;28;8466;-37
2024/01/24 11:42:26;;;;;;;;;;;;;;;26.11;39.10;95414.19;4990212;28;7206;-39
2024/01/24 11:45:12;;;;;;;;;;;;;;;26.06;39.60;95403.84;5001077;28;9085;-38
2024/01/24 11:47:38;;;;;;;;;;;;;;;26.11;38.77;95405.94;5038984;28;9079;-38
2024/01/24 11:50:07;;;;;;;;;;;;;;;26.13;38.69;95417.22;5065406;28;7374;-38
2024/01/24 11:52:35;;;;;;;;;;;;;;;26.16;38.47;95418.97;5066578;28;8430;-37
2024/01/24 11:55:49;;;;;;;;;;;;;;;26.15;38.69;95416.72;5064610;28;8761;-38
2024/01/24 11:58:48;;;;;;;;;;;;;;;26.15;38.36;95414.72;4977332;28;9116;-37
2024/01/24 12:01:24;;;;;;;;;;;;;;;26.14;38.88;95424.22;4995496;28;7392;-35
2024/01/24 12:03:59;;;;;;;;;;;;;;;26.17;38.94;95420.50;4972876;28;9108;-34
2024/01/24 12:06:38;;;;;;;;;;;;;;;26.16;38.49;95416.22;4968969;28;7019;-35
2024/01/24 12:09:08;;;;;;;;;;;;;;;26.15;38.74;95409.22;4994836;28;7296;-35
2024/01/24 12:11:34;;;;;;;;;;;;;;;26.14;38.77;95409.72;4959719;28;7268;-35
2024/01/24 12:14:17;;;;;;;;;;;;;;;26.19;38.56;95411.00;4974887;28;8865;-35
2024/01/24 12:16:44;;;;;;;;;;;;;;;26.21;38.13;95411.25;4959333;28;7198;-35
2024/01/24 12:19:11;;;;;;;;;;;;;;;26.23;38.05;95403.25;4983106;28;9043;-35
2024/01/24 12:21:41;;;;;;;;;;;;;;;26.21;38.35;95400.22;4978619;28;9578;-35
2024/01/24 12:24:16;;;;;;;;;;;;;;;26.19;38.22;95386.91;4987923;28;9007;-35
2024/01/24 12:26:44;;;;;;;;;;;;;;;26.17;38.44;95373.63;4977796;28;7502;-35
2024/01/24 12:29:30;;;;;;;;;;;;;;;26.16;38.28;95377.63;4978326;28;7967;-35
2024/01/24 12:32:27;;;;;;;;;;;;;;;26.16;38.73;95365.84;4994807;28;9235;-35
2024/01/24 12:34:54;;;;;;;;;;;;;;;26.14;38.60;95374.59;4939488;28;9214;-35
2024/01/24 12:37:32;;;;;;;;;;;;;;;26.13;38.62;95370.34;4963136;28;7299;-35
2024/01/24 12:40:31;;;;;;;;;;;;;;;26.20;38.14;95393.19;4978086;28;7415;-35
2024/01/24 12:43:07;;;;;;;;;;;;;;;26.17;38.13;95401.19;4944832;28;8772;-35
2024/01/24 12:45:33;;;;;;;;;;;;;;;26.11;38.13;95389.38;4967530;28;9107;-35
2024/01/24 12:47:59;;;;;;;;;;;;;;;26.17;38.53;95403.97;4974620;28;8778;-35
2024/01/24 12:50:27;;;;;;;;;;;;;;;26.16;38.69;95394.16;4958730;28;8720;-35
2024/01/24 12:53:03;;;;;;;;;;;;;;;26.09;38.38;95405.66;4958096;28;7009;-35
2024/01/24 12:55:54;;;;;;;;;;;;;;;26.07;38.27;95408.13;4958010;28;7612;-35
2024/01/24 12:58:30;;;;;;;;;;;;;;;26.13;38.71;95403.44;4973812;28;7040;-35
2024/01/24 13:01:08;;;;;;;;;;;;;;;26.16;38.29;95407.94;4957154;28;9125;-35
2024/01/24 13:03:34;;;;;;;;;;;;;;;26.20;38.41;95398.72;4957750;28;7168;-35
2024/01/24 13:06:22;;;;;;;;;;;;;;;26.25;38.17;95403.50;4954195;28;8739;-35
2024/01/24 13:08:49;;;;;;;;;;;;;;;26.19;38.54;95403.47;4955345;28;7364;-35
2024/01/24 13:11:33;;;;;;;;;;;;;;;26.23;38.27;95403.97;4964776;28;7419;-40
2024/01/24 13:14:00;;;;;;;;;;;;;;;26.20;38.81;95398.72;4992484;28;8076;-39
2024/01/24 13:16:26;;;;;;;;;;;;;;;26.17;39.01;95395.69;5002148;28;7090;-41
2024/01/24 13:18:53;;;;;;;;;;;;;;;26.16;38.33;95394.16;5024863;28;9087;-39
2024/01/24 13:21:23;;;;;;;;;;;;;;;26.12;38.93;95379.84;5034565;28;7243;-38
2024/01/24 13:23:52;;;;;;;;;;;;;;;26.17;38.33;95381.91;5044220;28;7147;-40
2024/01/24 13:26:20;;;;;;;;;;;;;;;26.19;38.04;95380.66;5052500;28;9541;-37
2024/01/24 13:28:50;;;;;;;;;;;;;;;26.15;38.92;95381.63;5034344;28;6969;-38
2024/01/24 13:31:22;;;;;;;;;;;;;;;26.17;38.25;95381.91;5032760;28;7209;-38
2024/01/24 13:33:51;;;;;;;;;;;;;;;26.20;38.63;95382.94;5032803;28;9108;-38